Time;durP1;ratioP1;P1;durP2;ratioP2;P2;SDS_P1;SDS_P2;PMS_P1;PMS_P2;Temp;Humidity;BMP_temperature;BMP_pressure;BME280_temperature;BME280_humidity;BME280_pressure;Samples;Min_cycle;Max_cycle;Signal;HPM_P1;HPM_P2
2022/12/03 00:01:49;;;;;;;26.73;23.83;;;;;;;;;;10196453;28;20045;-72
2022/12/03 00:06:45;;;;;;;26.48;23.63;;;;;;;;;;10201613;28;20433;-72
2022/12/03 00:11:42;;;;;;;27.50;22.52;;;;;;;;;;10183166;28;20050;-72
2022/12/03 00:16:38;;;;;;;25.67;22.88;;;;;;;;;;10183416;28;20038;-71
2022/12/03 00:21:34;;;;;;;31.40;24.10;;;;;;;;;;10188075;28;20342;-71
2022/12/03 00:26:31;;;;;;;26.50;22.88;;;;;;;;;;10189099;28;20056;-72
2022/12/03 00:31:27;;;;;;;28.15;24.77;;;;;;;;;;10193871;28;20092;-71
2022/12/03 00:36:23;;;;;;;26.58;22.30;;;;;;;;;;10199506;28;20552;-71
2022/12/03 00:41:20;;;;;;;27.83;22.17;;;;;;;;;;10205884;28;20054;-71
2022/12/03 00:46:16;;;;;;;25.00;21.38;;;;;;;;;;10190917;28;20048;-71
2022/12/03 00:51:17;;;;;;;29.42;23.38;;;;;;;;;;10189548;28;20065;-72
2022/12/03 00:56:13;;;;;;;27.27;23.55;;;;;;;;;;10203123;28;20493;-73
2022/12/03 01:01:09;;;;;;;30.08;21.77;;;;;;;;;;10201279;28;20054;-72
2022/12/03 01:06:05;;;;;;;30.17;23.98;;;;;;;;;;10205009;28;20596;-72
2022/12/03 01:11:02;;;;;;;32.97;22.45;;;;;;;;;;10197983;28;20144;-72
2022/12/03 01:15:58;;;;;;;29.02;22.63;;;;;;;;;;10201024;28;20120;-72
2022/12/03 01:20:54;;;;;;;28.55;22.30;;;;;;;;;;10203576;28;20738;-73
2022/12/03 01:25:51;;;;;;;26.00;22.33;;;;;;;;;;10183500;28;20042;-72
2022/12/03 01:36:02;;;;;;;26.13;22.45;;;;;;;;;;10196138;28;20048;-70
2022/12/03 01:40:58;;;;;;;27.95;23.83;;;;;;;;;;10189053;28;20459;-70
2022/12/03 01:45:54;;;;;;;32.20;23.42;;;;;;;;;;10191094;28;20068;-73
2022/12/03 01:50:51;;;;;;;29.98;23.23;;;;;;;;;;10191714;28;20046;-74
2022/12/03 01:55:47;;;;;;;32.25;23.42;;;;;;;;;;10186763;28;20144;-70
2022/12/03 02:00:44;;;;;;;33.10;24.02;;;;;;;;;;10188853;28;20088;-70
2022/12/03 02:05:40;;;;;;;30.42;22.83;;;;;;;;;;10192324;28;20049;-70
2022/12/03 02:10:37;;;;;;;32.80;23.83;;;;;;;;;;10220800;28;20068;-73
2022/12/03 02:15:33;;;;;;;30.55;22.38;;;;;;;;;;10192447;28;20403;-74
2022/12/03 02:20:31;;;;;;;31.65;23.58;;;;;;;;;;10183817;28;20174;-71
2022/12/03 02:25:30;;;;;;;32.67;23.95;;;;;;;;;;10180472;28;20049;-72
2022/12/03 02:30:28;;;;;;;33.60;23.48;;;;;;;;;;10194019;28;20077;-72
2022/12/03 02:35:25;;;;;;;31.95;22.25;;;;;;;;;;10187141;28;20137;-72
2022/12/03 02:40:23;;;;;;;33.08;22.58;;;;;;;;;;10212040;28;25763;-71
2022/12/03 02:45:19;;;;;;;34.15;22.98;;;;;;;;;;10183018;28;20065;-73
2022/12/03 02:50:17;;;;;;;37.78;24.70;;;;;;;;;;10193457;28;20548;-75
2022/12/03 02:55:14;;;;;;;32.80;23.00;;;;;;;;;;10195050;28;20391;-72
2022/12/03 03:00:10;;;;;;;31.23;21.98;;;;;;;;;;10186338;28;20056;-72
2022/12/03 03:05:08;;;;;;;31.25;21.60;;;;;;;;;;10190142;28;20053;-74
2022/12/03 03:10:05;;;;;;;34.33;22.35;;;;;;;;;;10187964;28;20042;-73
2022/12/03 03:15:02;;;;;;;37.08;23.73;;;;;;;;;;10191111;28;20073;-72
2022/12/03 03:19:59;;;;;;;35.13;22.70;;;;;;;;;;10190769;28;20052;-73
2022/12/03 03:24:55;;;;;;;32.25;23.38;;;;;;;;;;10180125;28;20049;-73
2022/12/03 03:29:51;;;;;;;35.33;22.92;;;;;;;;;;10183890;28;20042;-70
2022/12/03 03:34:48;;;;;;;32.50;22.05;;;;;;;;;;10178821;28;20050;-71
2022/12/03 03:39:44;;;;;;;30.45;22.35;;;;;;;;;;10187185;28;20041;-73
2022/12/03 03:44:40;;;;;;;30.25;22.65;;;;;;;;;;10188254;28;20049;-72
2022/12/03 03:49:37;;;;;;;31.63;23.17;;;;;;;;;;10180281;28;20049;-71
2022/12/03 03:54:33;;;;;;;34.22;22.45;;;;;;;;;;10183578;28;20125;-71
2022/12/03 03:59:29;;;;;;;32.25;23.30;;;;;;;;;;10187505;28;20057;-73
2022/12/03 04:04:26;;;;;;;35.10;24.38;;;;;;;;;;10203670;28;20065;-74
2022/12/03 04:09:22;;;;;;;32.22;24.15;;;;;;;;;;10193241;28;20064;-74
2022/12/03 04:14:18;;;;;;;31.25;23.60;;;;;;;;;;10187618;28;20414;-73
2022/12/03 04:19:16;;;;;;;29.77;22.55;;;;;;;;;;10195798;28;20460;-75
2022/12/03 04:24:12;;;;;;;34.35;23.98;;;;;;;;;;10188749;28;20050;-72
2022/12/03 04:29:08;;;;;;;35.80;25.08;;;;;;;;;;10196025;28;20409;-71
2022/12/03 04:39:19;;;;;;;33.08;23.88;;;;;;;;;;10194005;28;21620;-72
2022/12/03 04:44:35;;;;;;;33.70;23.40;;;;;;;;;;10186613;28;20504;-74
2022/12/03 04:49:32;;;;;;;35.47;24.50;;;;;;;;;;10188268;28;20038;-73
2022/12/03 04:54:28;;;;;;;36.30;24.52;;;;;;;;;;10187830;28;20038;-72
2022/12/03 04:59:24;;;;;;;41.92;26.10;;;;;;;;;;10188117;28;20087;-73
2022/12/03 05:04:21;;;;;;;31.75;23.48;;;;;;;;;;10189937;28;20521;-74
2022/12/03 05:09:17;;;;;;;32.03;22.75;;;;;;;;;;10211944;28;20041;-74
2022/12/03 05:14:13;;;;;;;34.58;22.65;;;;;;;;;;10198035;28;20052;-74
2022/12/03 05:19:09;;;;;;;33.63;23.00;;;;;;;;;;10200413;28;20389;-74
2022/12/03 05:24:06;;;;;;;37.08;23.10;;;;;;;;;;10183624;28;20054;-74
2022/12/03 05:29:02;;;;;;;32.00;23.30;;;;;;;;;;10191049;28;20413;-72
2022/12/03 05:33:58;;;;;;;35.50;24.73;;;;;;;;;;10202932;28;20057;-72
2022/12/03 05:38:54;;;;;;;37.45;23.55;;;;;;;;;;10186668;28;20112;-73
2022/12/03 05:43:51;;;;;;;32.88;22.77;;;;;;;;;;10190436;28;20141;-72
2022/12/03 05:48:47;;;;;;;35.13;24.23;;;;;;;;;;10192461;28;20049;-73
2022/12/03 05:53:43;;;;;;;41.78;25.08;;;;;;;;;;10198888;28;20052;-73
2022/12/03 05:58:40;;;;;;;36.03;22.70;;;;;;;;;;10189021;28;20053;-73
2022/12/03 06:03:36;;;;;;;37.72;24.38;;;;;;;;;;10186921;28;20042;-73
2022/12/03 06:08:33;;;;;;;37.15;23.20;;;;;;;;;;10184910;28;20149;-73
2022/12/03 06:13:29;;;;;;;35.35;25.20;;;;;;;;;;10194268;28;20128;-73
2022/12/03 06:18:25;;;;;;;35.63;23.67;;;;;;;;;;10188207;28;20140;-72
2022/12/03 06:23:21;;;;;;;39.55;23.85;;;;;;;;;;10182538;28;20039;-75
2022/12/03 06:28:18;;;;;;;33.25;23.27;;;;;;;;;;10192349;28;20045;-74
2022/12/03 06:33:14;;;;;;;34.50;23.75;;;;;;;;;;10185167;28;20046;-73
2022/12/03 06:38:10;;;;;;;35.33;23.02;;;;;;;;;;10189434;28;20053;-74
2022/12/03 06:43:06;;;;;;;35.75;23.92;;;;;;;;;;10188244;28;20046;-74
2022/12/03 06:48:03;;;;;;;36.72;24.08;;;;;;;;;;10189620;28;20045;-73
2022/12/03 06:52:59;;;;;;;32.65;23.63;;;;;;;;;;10216529;28;20041;-74
2022/12/03 06:57:55;;;;;;;37.28;23.67;;;;;;;;;;10185850;28;20740;-72
2022/12/03 07:02:52;;;;;;;34.75;23.58;;;;;;;;;;10180323;28;20425;-71
2022/12/03 07:07:50;;;;;;;36.65;25.23;;;;;;;;;;10182238;28;20042;-71
2022/12/03 07:12:47;;;;;;;31.55;23.08;;;;;;;;;;10197608;28;20430;-72
2022/12/03 07:17:43;;;;;;;32.67;24.00;;;;;;;;;;10182404;28;20133;-71
2022/12/03 07:22:39;;;;;;;31.25;23.08;;;;;;;;;;10178795;28;20053;-70
2022/12/03 07:27:36;;;;;;;37.17;24.88;;;;;;;;;;10182510;28;20054;-70
2022/12/03 07:32:32;;;;;;;32.72;23.20;;;;;;;;;;10166522;28;20048;-71
2022/12/03 07:37:28;;;;;;;35.65;24.08;;;;;;;;;;10176742;28;20045;-73
2022/12/03 07:42:25;;;;;;;39.28;25.35;;;;;;;;;;10183257;28;20042;-71
2022/12/03 07:47:21;;;;;;;36.72;24.67;;;;;;;;;;10168388;28;20438;-72
2022/12/03 07:52:17;;;;;;;34.90;24.77;;;;;;;;;;10189277;28;20064;-71
2022/12/03 07:57:14;;;;;;;38.58;24.55;;;;;;;;;;10177766;28;20172;-68
2022/12/03 08:02:10;;;;;;;35.25;24.90;;;;;;;;;;10188774;28;20049;-67
2022/12/03 08:07:06;;;;;;;37.10;25.33;;;;;;;;;;10176924;28;20052;-72
2022/12/03 08:12:07;;;;;;;41.20;26.20;;;;;;;;;;10173323;28;20498;-72
2022/12/03 08:17:08;;;;;;;37.10;24.33;;;;;;;;;;10180769;28;20052;-74
2022/12/03 08:22:10;;;;;;;34.80;23.17;;;;;;;;;;10179531;28;20058;-74
2022/12/03 08:27:16;;;;;;;35.97;23.90;;;;;;;;;;10176972;28;20053;-73
2022/12/03 08:32:12;;;;;;;35.78;24.05;;;;;;;;;;10172598;28;20050;-73
2022/12/03 08:37:15;;;;;;;36.85;23.65;;;;;;;;;;10174062;28;20140;-72
2022/12/03 08:47:29;;;;;;;41.97;24.17;;;;;;;;;;10166501;28;20048;-73
2022/12/03 08:52:32;;;;;;;40.38;24.85;;;;;;;;;;10181917;28;20054;-73
2022/12/03 08:57:29;;;;;;;37.03;23.98;;;;;;;;;;10180325;28;20054;-72
2022/12/03 09:02:29;;;;;;;36.53;24.73;;;;;;;;;;10180467;28;20049;-72
2022/12/03 09:07:25;;;;;;;35.23;22.23;;;;;;;;;;9549096;28;17795893;-72
2022/12/03 09:12:22;;;;;;;37.03;23.30;;;;;;;;;;10173968;28;20515;-70
2022/12/03 09:17:18;;;;;;;34.55;22.35;;;;;;;;;;10161092;28;20037;-74
2022/12/03 09:22:16;;;;;;;38.10;23.33;;;;;;;;;;10174233;28;20053;-73
2022/12/03 09:27:12;;;;;;;40.90;23.52;;;;;;;;;;10173274;28;20072;-72
2022/12/03 09:32:08;;;;;;;37.95;23.50;;;;;;;;;;10173514;28;20046;-74
2022/12/03 09:37:11;;;;;;;32.17;21.10;;;;;;;;;;10168222;28;20081;-71
2022/12/03 09:42:08;;;;;;;31.70;20.95;;;;;;;;;;10179781;28;20065;-70
2022/12/03 09:47:05;;;;;;;36.15;21.02;;;;;;;;;;10159071;28;20056;-69
2022/12/03 09:52:02;;;;;;;39.88;22.40;;;;;;;;;;10160973;28;20065;-70
2022/12/03 09:57:01;;;;;;;32.33;20.08;;;;;;;;;;10179882;28;20549;-72
2022/12/03 10:01:57;;;;;;;31.13;20.30;;;;;;;;;;10170800;28;20468;-73
2022/12/03 10:06:56;;;;;;;32.83;21.20;;;;;;;;;;10176115;28;20049;-73
2022/12/03 10:11:53;;;;;;;30.55;20.23;;;;;;;;;;10197170;28;20042;-73
2022/12/03 10:16:49;;;;;;;31.40;21.15;;;;;;;;;;10161437;28;20053;-74
2022/12/03 10:21:46;;;;;;;31.77;19.15;;;;;;;;;;10173216;28;20499;-74
2022/12/03 10:26:43;;;;;;;31.33;20.27;;;;;;;;;;10181767;28;20065;-73
2022/12/03 10:31:40;;;;;;;29.88;19.88;;;;;;;;;;10154841;28;20053;-74
2022/12/03 10:36:36;;;;;;;31.35;20.42;;;;;;;;;;10168904;28;20050;-74
2022/12/03 10:41:32;;;;;;;33.90;20.42;;;;;;;;;;10169578;28;20401;-74
2022/12/03 10:46:29;;;;;;;33.63;20.38;;;;;;;;;;10172636;28;20528;-74
2022/12/03 10:51:25;;;;;;;34.85;20.98;;;;;;;;;;10181295;28;20045;-74
2022/12/03 10:56:26;;;;;;;34.05;20.33;;;;;;;;;;10176436;28;20137;-74
2022/12/03 11:01:24;;;;;;;33.13;20.75;;;;;;;;;;10143490;28;20061;-73
2022/12/03 11:06:21;;;;;;;28.52;18.55;;;;;;;;;;10169379;28;20065;-73
2022/12/03 11:11:20;;;;;;;26.70;18.60;;;;;;;;;;10192064;28;20049;-73
2022/12/03 11:16:35;;;;;;;30.17;19.70;;;;;;;;;;10185439;28;20050;-74
2022/12/03 11:21:31;;;;;;;31.05;19.30;;;;;;;;;;10181926;28;20042;-73
2022/12/03 11:26:27;;;;;;;28.38;19.48;;;;;;;;;;10182127;28;20517;-73
2022/12/03 11:31:38;;;;;;;30.20;19.73;;;;;;;;;;10187197;28;20049;-73
2022/12/03 11:36:35;;;;;;;31.35;20.65;;;;;;;;;;10181427;28;20165;-74
2022/12/03 11:42:26;;;;;;;29.65;19.77;;;;;;;;;;10176218;28;20046;-72
2022/12/03 11:47:22;;;;;;;26.00;17.92;;;;;;;;;;10165625;28;20128;-72
2022/12/03 11:52:21;;;;;;;30.83;19.67;;;;;;;;;;10170919;28;20050;-72
2022/12/03 11:57:34;;;;;;;33.83;21.35;;;;;;;;;;10164088;28;20045;-70
2022/12/03 12:02:30;;;;;;;28.25;19.05;;;;;;;;;;10169916;28;20696;-73
2022/12/03 12:07:34;;;;;;;32.13;18.60;;;;;;;;;;10169249;28;20638;-72
2022/12/03 12:12:35;;;;;;;28.17;18.13;;;;;;;;;;10171005;28;20056;-72
2022/12/03 12:17:33;;;;;;;28.10;18.30;;;;;;;;;;10165648;28;20045;-72
2022/12/03 12:22:30;;;;;;;28.83;19.40;;;;;;;;;;10196182;28;20505;-72
2022/12/03 12:27:37;;;;;;;29.88;18.85;;;;;;;;;;10187083;28;20635;-73
2022/12/03 12:32:53;;;;;;;26.90;18.30;;;;;;;;;;10192577;28;20128;-73
2022/12/03 12:37:52;;;;;;;28.25;18.58;;;;;;;;;;10176420;28;20054;-72
2022/12/03 12:42:59;;;;;;;27.27;18.67;;;;;;;;;;10177824;28;20065;-72
2022/12/03 12:48:02;;;;;;;31.33;18.52;;;;;;;;;;10179575;28;20052;-72
2022/12/03 12:53:01;;;;;;;29.50;19.48;;;;;;;;;;10182602;28;20049;-73
2022/12/03 12:58:00;;;;;;;28.17;18.92;;;;;;;;;;10178242;28;20046;-72
2022/12/03 13:03:01;;;;;;;26.98;17.65;;;;;;;;;;10177636;28;20590;-72
2022/12/03 13:07:58;;;;;;;26.23;18.75;;;;;;;;;;10177634;28;20037;-72
2022/12/03 13:12:54;;;;;;;28.27;19.05;;;;;;;;;;10190965;28;20038;-72
2022/12/03 13:17:50;;;;;;;31.27;19.50;;;;;;;;;;10187669;28;20052;-72
2022/12/03 13:22:46;;;;;;;29.15;19.85;;;;;;;;;;10201883;28;20753;-72
2022/12/03 13:27:44;;;;;;;30.25;19.27;;;;;;;;;;10197117;28;20041;-72
2022/12/03 13:32:41;;;;;;;28.67;19.10;;;;;;;;;;10198138;28;20141;-72
2022/12/03 13:37:37;;;;;;;31.05;18.67;;;;;;;;;;10193979;28;20046;-73
2022/12/03 13:42:38;;;;;;;27.02;17.48;;;;;;;;;;10171349;28;20431;-72
2022/12/03 13:47:34;;;;;;;28.75;18.45;;;;;;;;;;10177553;28;20049;-73
2022/12/03 13:52:31;;;;;;;31.05;18.77;;;;;;;;;;10175681;28;20468;-72
2022/12/03 13:57:27;;;;;;;28.38;18.67;;;;;;;;;;10178836;28;20050;-72
2022/12/03 14:02:24;;;;;;;30.02;19.77;;;;;;;;;;10176815;28;20702;-72
2022/12/03 14:07:21;;;;;;;28.05;19.52;;;;;;;;;;10176710;28;20527;-72
2022/12/03 14:12:26;;;;;;;27.77;18.80;;;;;;;;;;10182756;28;20054;-72
2022/12/03 14:17:22;;;;;;;32.17;18.98;;;;;;;;;;10188642;28;20057;-72
2022/12/03 14:22:22;;;;;;;26.75;18.98;;;;;;;;;;10187334;28;20549;-73
2022/12/03 14:27:19;;;;;;;23.60;17.83;;;;;;;;;;10187393;28;20076;-72
2022/12/03 14:32:16;;;;;;;27.42;18.48;;;;;;;;;;10173576;28;20133;-72
2022/12/03 14:37:12;;;;;;;26.17;17.67;;;;;;;;;;10164256;28;20073;-72
2022/12/03 14:42:11;;;;;;;27.63;18.92;;;;;;;;;;10172624;28;20038;-73
2022/12/03 14:47:08;;;;;;;28.17;19.27;;;;;;;;;;10172757;28;20050;-72
2022/12/03 14:52:04;;;;;;;26.30;18.38;;;;;;;;;;10172018;28;20050;-72
2022/12/03 14:57:07;;;;;;;27.42;19.52;;;;;;;;;;10171089;28;20042;-72
2022/12/03 15:02:03;;;;;;;30.00;19.00;;;;;;;;;;10155873;28;20054;-72
2022/12/03 15:07:00;;;;;;;30.17;19.88;;;;;;;;;;10183140;28;20048;-72
2022/12/03 15:11:56;;;;;;;32.17;20.23;;;;;;;;;;10185578;28;20042;-72
2022/12/03 15:16:52;;;;;;;29.80;19.95;;;;;;;;;;10179088;28;20046;-73
2022/12/03 15:21:48;;;;;;;29.23;19.73;;;;;;;;;;10183439;28;20052;-72
2022/12/03 15:26:45;;;;;;;29.65;20.42;;;;;;;;;;10179011;28;20046;-72
2022/12/03 15:31:41;;;;;;;32.67;21.30;;;;;;;;;;10183046;28;20054;-72
2022/12/03 15:36:38;;;;;;;27.75;20.13;;;;;;;;;;10189816;28;20116;-72
2022/12/03 15:41:35;;;;;;;29.27;21.98;;;;;;;;;;10186517;28;20100;-72
2022/12/03 15:46:31;;;;;;;30.42;21.77;;;;;;;;;;10198041;28;20080;-72
2022/12/03 15:51:28;;;;;;;29.67;20.77;;;;;;;;;;10197319;28;20053;-72
2022/12/03 15:56:24;;;;;;;28.23;20.92;;;;;;;;;;10186157;28;20077;-71
2022/12/03 16:01:20;;;;;;;27.40;20.50;;;;;;;;;;10208547;28;20239;-72
2022/12/03 16:06:18;;;;;;;26.10;18.27;;;;;;;;;;10185128;28;20050;-72
2022/12/03 16:11:14;;;;;;;32.80;17.95;;;;;;;;;;10194961;28;20046;-71
2022/12/03 16:16:11;;;;;;;26.45;18.65;;;;;;;;;;10195728;28;20580;-71
2022/12/03 16:21:07;;;;;;;25.27;18.48;;;;;;;;;;10208253;28;20134;-72
2022/12/03 16:26:04;;;;;;;23.67;18.30;;;;;;;;;;10207909;28;20050;-71
2022/12/03 16:31:00;;;;;;;23.70;18.25;;;;;;;;;;10200456;28;20504;-72
2022/12/03 16:35:56;;;;;;;20.90;17.48;;;;;;;;;;10188624;28;20046;-72
2022/12/03 16:40:53;;;;;;;24.75;18.33;;;;;;;;;;10197257;28;20057;-72
2022/12/03 16:50:52;;;;;;;26.20;20.52;;;;;;;;;;10203188;28;20120;-71
2022/12/03 16:55:48;;;;;;;24.52;19.33;;;;;;;;;;10202591;28;20050;-72
2022/12/03 17:00:44;;;;;;;22.40;18.27;;;;;;;;;;10182230;28;20046;-70
2022/12/03 17:05:41;;;;;;;24.15;18.20;;;;;;;;;;10177972;28;20060;-72
2022/12/03 17:10:37;;;;;;;24.15;19.25;;;;;;;;;;10168911;28;20045;-72
2022/12/03 17:15:34;;;;;;;27.02;18.95;;;;;;;;;;10174299;28;20048;-72
2022/12/03 17:20:31;;;;;;;26.48;18.50;;;;;;;;;;10181486;28;20241;-73
2022/12/03 17:25:28;;;;;;;26.27;19.40;;;;;;;;;;10194890;28;20439;-72
2022/12/03 17:30:25;;;;;;;25.80;18.95;;;;;;;;;;10198936;28;20045;-72
2022/12/03 17:35:22;;;;;;;28.55;20.13;;;;;;;;;;10192755;28;20046;-71
2022/12/03 17:40:18;;;;;;;27.20;20.40;;;;;;;;;;10205094;28;20069;-70
2022/12/03 17:45:15;;;;;;;27.92;20.88;;;;;;;;;;10188179;28;20522;-69
2022/12/03 17:50:11;;;;;;;24.88;18.63;;;;;;;;;;10200974;28;20047;-70
2022/12/03 17:55:08;;;;;;;29.25;19.25;;;;;;;;;;10181954;28;20046;-70
2022/12/03 18:00:11;;;;;;;25.95;18.52;;;;;;;;;;10174062;28;20084;-73
2022/12/03 18:05:08;;;;;;;29.30;20.35;;;;;;;;;;10174017;28;20137;-72
2022/12/03 18:10:05;;;;;;;28.40;19.90;;;;;;;;;;10183522;28;20132;-69
2022/12/03 18:15:02;;;;;;;29.13;21.05;;;;;;;;;;10180277;28;20073;-70
2022/12/03 18:19:58;;;;;;;28.23;20.20;;;;;;;;;;10179896;28;20058;-71
2022/12/03 18:24:55;;;;;;;33.63;22.00;;;;;;;;;;10175066;28;20416;-71
2022/12/03 18:29:52;;;;;;;31.63;20.30;;;;;;;;;;10180744;28;20125;-71
2022/12/03 18:34:49;;;;;;;27.17;20.60;;;;;;;;;;10168166;28;20509;-71
2022/12/03 18:39:46;;;;;;;27.45;21.13;;;;;;;;;;10176931;28;20100;-71
2022/12/03 18:44:42;;;;;;;33.97;21.52;;;;;;;;;;10180114;28;20466;-71
2022/12/03 18:49:44;;;;;;;;;;;;;;;;;;10180694;28;20048;-71
2022/12/03 18:54:41;;;;;;;38.15;24.13;;;;;;;;;;10173734;28;19925;-73
2022/12/03 18:59:39;;;;;;;39.33;23.83;;;;;;;;;;10148095;28;20755;-73
2022/12/03 19:04:35;;;;;;;41.75;24.70;;;;;;;;;;10186611;28;20045;-73
2022/12/03 19:09:32;;;;;;;45.45;26.30;;;;;;;;;;10182464;28;20477;-73
2022/12/03 19:14:28;;;;;;;41.30;26.23;;;;;;;;;;10180574;28;20053;-73
2022/12/03 19:19:26;;;;;;;42.75;25.50;;;;;;;;;;10178005;28;20637;-71
2022/12/03 19:24:22;;;;;;;52.05;27.27;;;;;;;;;;10190707;28;20414;-72
2022/12/03 19:29:23;;;;;;;49.28;25.65;;;;;;;;;;10177178;28;20072;-73
2022/12/03 19:34:20;;;;;;;50.55;28.55;;;;;;;;;;10190337;28;20073;-72
2022/12/03 19:39:16;;;;;;;42.40;24.42;;;;;;;;;;10193493;28;20137;-72
2022/12/03 19:44:13;;;;;;;43.47;24.80;;;;;;;;;;10193736;28;20058;-71
2022/12/03 19:49:10;;;;;;;43.83;26.15;;;;;;;;;;10193331;28;20120;-72
2022/12/03 19:54:09;;;;;;;46.17;26.75;;;;;;;;;;10193251;28;20120;-73
2022/12/03 19:59:06;;;;;;;45.83;26.58;;;;;;;;;;10182493;28;20132;-69
2022/12/03 20:04:03;;;;;;;43.22;25.90;;;;;;;;;;10193771;28;20503;-71
2022/12/03 20:09:00;;;;;;;44.58;26.30;;;;;;;;;;10190882;28;20510;-71
2022/12/03 20:13:57;;;;;;;44.53;26.70;;;;;;;;;;10179739;28;20125;-71
2022/12/03 20:18:55;;;;;;;48.38;26.85;;;;;;;;;;10186164;28;20038;-71
2022/12/03 20:23:51;;;;;;;48.03;28.90;;;;;;;;;;10175003;28;20120;-71
2022/12/03 20:28:48;;;;;;;45.55;26.25;;;;;;;;;;10202475;28;20148;-71
2022/12/03 20:33:48;;;;;;;49.33;27.48;;;;;;;;;;10193444;28;20049;-71
2022/12/03 20:38:46;;;;;;;48.93;27.80;;;;;;;;;;10188229;28;20569;-71
2022/12/03 20:43:43;;;;;;;44.67;26.52;;;;;;;;;;10193193;28;20096;-72
2022/12/03 20:48:40;;;;;;;49.53;27.70;;;;;;;;;;10198490;28;20066;-71
2022/12/03 20:53:37;;;;;;;43.85;27.63;;;;;;;;;;10186351;28;20130;-72
2022/12/03 20:58:33;;;;;;;45.53;27.67;;;;;;;;;;10189933;28;20410;-72
2022/12/03 21:03:31;;;;;;;44.60;26.10;;;;;;;;;;10175961;28;20077;-72
2022/12/03 21:08:27;;;;;;;47.13;26.13;;;;;;;;;;10190326;28;20054;-72
2022/12/03 21:13:40;;;;;;;42.58;25.58;;;;;;;;;;10200498;28;20097;-72
2022/12/03 21:18:36;;;;;;;43.67;27.00;;;;;;;;;;10173828;28;20744;-70
2022/12/03 21:23:33;;;;;;;47.63;28.52;;;;;;;;;;10170465;28;20041;-70
2022/12/03 21:28:30;;;;;;;43.75;26.17;;;;;;;;;;10190109;28;20129;-73
2022/12/03 21:33:27;;;;;;;46.63;27.65;;;;;;;;;;10186775;28;20130;-70
2022/12/03 21:38:23;;;;;;;47.05;28.23;;;;;;;;;;10189072;28;20112;-69
2022/12/03 21:43:20;;;;;;;44.35;26.90;;;;;;;;;;10181732;28;20138;-76
2022/12/03 21:48:17;;;;;;;48.60;27.50;;;;;;;;;;10182531;28;20050;-75
2022/12/03 21:53:13;;;;;;;44.08;25.40;;;;;;;;;;10172807;28;20054;-74
2022/12/03 21:58:09;;;;;;;45.40;26.33;;;;;;;;;;10171518;28;20555;-74
2022/12/03 22:03:06;;;;;;;44.53;25.70;;;;;;;;;;10170490;28;20042;-71
2022/12/03 22:08:02;;;;;;;48.05;26.35;;;;;;;;;;10176310;28;20066;-71
2022/12/03 22:12:59;;;;;;;51.25;28.38;;;;;;;;;;10184512;28;20073;-74
2022/12/03 22:17:55;;;;;;;51.97;29.70;;;;;;;;;;10210206;28;20050;-74
2022/12/03 22:22:51;;;;;;;60.00;31.48;;;;;;;;;;10192199;28;20414;-73
2022/12/03 22:27:47;;;;;;;63.40;31.63;;;;;;;;;;10193323;28;20053;-74
2022/12/03 22:32:44;;;;;;;60.03;32.63;;;;;;;;;;10190856;28;20140;-73
2022/12/03 22:37:40;;;;;;;52.08;28.98;;;;;;;;;;10189713;28;20145;-67
2022/12/03 22:42:36;;;;;;;57.50;32.50;;;;;;;;;;10180062;28;20116;-69
2022/12/03 22:47:33;;;;;;;54.55;31.13;;;;;;;;;;10173729;28;20113;-69
2022/12/03 22:52:29;;;;;;;55.85;29.55;;;;;;;;;;10171137;28;20049;-69
2022/12/03 22:57:25;;;;;;;52.28;31.38;;;;;;;;;;10171312;28;20065;-67
2022/12/03 23:02:22;;;;;;;53.35;31.83;;;;;;;;;;10174018;28;20129;-67
2022/12/03 23:07:18;;;;;;;54.00;31.77;;;;;;;;;;10169388;28;20045;-66
2022/12/03 23:12:14;;;;;;;57.28;31.63;;;;;;;;;;10188747;28;20049;-67
2022/12/03 23:17:10;;;;;;;55.97;33.08;;;;;;;;;;10186723;28;20589;-67
2022/12/03 23:22:07;;;;;;;59.15;31.30;;;;;;;;;;10190315;28;20132;-73
2022/12/03 23:27:03;;;;;;;58.10;32.92;;;;;;;;;;10205484;28;20064;-73
2022/12/03 23:31:59;;;;;;;55.00;32.15;;;;;;;;;;10193604;28;20413;-73
2022/12/03 23:36:55;;;;;;;59.15;33.08;;;;;;;;;;10197193;28;20054;-73
2022/12/03 23:41:52;;;;;;;53.17;29.85;;;;;;;;;;10194591;28;20133;-73
2022/12/03 23:46:48;;;;;;;54.13;31.30;;;;;;;;;;10184939;28;20461;-73
2022/12/03 23:51:44;;;;;;;49.95;28.90;;;;;;;;;;10182712;28;20061;-73
2022/12/03 23:56:41;;;;;;;52.20;31.55;;;;;;;;;;10189878;28;20053;-72
